createdAt,value
2022-09-17T00:00:16.172Z,3.10
2022-09-17T00:02:17.895Z,3.20
2022-09-17T00:04:19.537Z,2.95
2022-09-17T00:06:21.278Z,3.03
2022-09-17T00:08:23.067Z,3.15
2022-09-17T00:10:25.560Z,3.10
2022-09-17T00:12:27.239Z,3.00
2022-09-17T00:14:29.045Z,3.00
2022-09-17T00:16:39.445Z,2.85
2022-09-17T00:18:41.092Z,2.80
2022-09-17T00:20:43.921Z,3.10
2022-09-17T00:22:45.586Z,3.15
2022-09-17T00:24:47.292Z,3.00
2022-09-17T00:26:49.262Z,2.97
2022-09-17T00:28:54.571Z,2.85
2022-09-17T00:30:56.347Z,2.90
2022-09-17T00:32:58.114Z,2.90
2022-09-17T00:34:59.861Z,3.00
2022-09-17T00:37:01.688Z,3.13
2022-09-17T00:39:03.847Z,2.83
2022-09-17T00:41:05.760Z,3.20
2022-09-17T00:43:10.852Z,2.78
2022-09-17T00:45:12.657Z,2.63
2022-09-17T00:47:16.495Z,2.58
2022-09-17T00:49:20.893Z,2.90
2022-09-17T00:51:29.292Z,2.63
2022-09-17T00:53:30.957Z,2.67
2022-09-17T00:55:37.120Z,2.70
2022-09-17T00:57:38.795Z,2.50
2022-09-17T00:59:40.407Z,2.80
2022-09-17T01:01:42.121Z,3.08
2022-09-17T01:03:43.944Z,2.58
2022-09-17T01:06:10.300Z,3.00
2022-09-17T01:08:21.335Z,2.78
2022-09-17T01:10:50.313Z,2.70
2022-09-17T01:13:09.503Z,2.38
2022-09-17T01:15:23.201Z,2.90
2022-09-17T01:17:36.680Z,2.55
2022-09-17T01:20:05.418Z,2.70
2022-09-17T01:22:42.143Z,2.67
2022-09-17T01:24:52.671Z,2.65
2022-09-17T01:27:12.754Z,2.60
2022-09-17T01:29:26.063Z,2.72
2022-09-17T01:31:34.594Z,2.80
2022-09-17T01:33:39.021Z,2.45
2022-09-17T01:38:00.115Z,2.50
2022-09-17T01:40:06.605Z,2.45
2022-09-17T01:42:14.442Z,2.70
2022-09-17T01:44:42.380Z,2.60
2022-09-17T01:46:46.826Z,2.50
2022-09-17T01:48:49.884Z,2.47
2022-09-17T01:51:11.668Z,2.50
2022-09-17T01:53:13.347Z,2.70
2022-09-17T01:55:16.207Z,2.75
2022-09-17T01:57:28.105Z,2.47
2022-09-17T01:59:32.552Z,2.55
2022-09-17T02:03:46.076Z,2.50
2022-09-17T02:06:00.963Z,2.50
2022-09-17T02:10:19.022Z,2.42
2022-09-17T02:12:25.179Z,2.45
2022-09-17T02:14:40.315Z,2.40
2022-09-17T02:16:45.599Z,2.65
2022-09-17T02:18:53.744Z,2.30
2022-09-17T02:21:02.338Z,2.35
2022-09-17T02:23:07.772Z,2.60
2022-09-17T02:25:22.644Z,2.42
2022-09-17T02:29:41.503Z,2.47
2022-09-17T02:31:43.240Z,2.20
2022-09-17T02:33:48.490Z,2.22
2022-09-17T02:35:50.221Z,2.20
2022-09-17T02:37:51.881Z,2.20
2022-09-17T02:39:53.865Z,2.20
2022-09-17T02:42:01.064Z,2.40
2022-09-17T02:44:14.991Z,2.30
2022-09-17T02:46:25.524Z,2.20
2022-09-17T02:48:56.393Z,2.10
2022-09-17T02:51:22.351Z,2.00
2022-09-17T02:53:35.118Z,2.50
2022-09-17T02:56:04.366Z,2.30
2022-09-17T02:58:28.208Z,2.35
2022-09-17T03:00:29.947Z,2.20
2022-09-17T03:02:43.816Z,2.28
2022-09-17T03:04:46.639Z,2.38
2022-09-17T03:06:48.393Z,2.50
2022-09-17T03:08:50.382Z,2.70
2022-09-17T03:10:52.049Z,2.30
2022-09-17T03:12:54.097Z,2.33
2022-09-17T03:14:55.852Z,2.08
2022-09-17T03:16:57.544Z,2.30
2022-09-17T03:18:59.267Z,2.85
2022-09-17T03:21:00.913Z,2.60
2022-09-17T03:23:02.686Z,2.30
2022-09-17T03:25:04.782Z,2.30
2022-09-17T03:27:06.469Z,2.70
2022-09-17T03:29:08.212Z,2.20
2022-09-17T03:31:10.030Z,2.53
2022-09-17T03:33:11.790Z,2.20
2022-09-17T03:35:13.562Z,2.20
2022-09-17T03:37:15.292Z,2.22
2022-09-17T03:39:17.061Z,2.38
2022-09-17T03:41:18.743Z,2.30
2022-09-17T03:43:20.372Z,2.30
2022-09-17T03:45:22.010Z,2.40
2022-09-17T03:47:23.767Z,2.25
2022-09-17T03:49:25.459Z,2.25
2022-09-17T03:51:27.248Z,2.70
2022-09-17T03:53:28.992Z,2.40
2022-09-17T03:55:30.671Z,2.40
2022-09-17T03:57:32.444Z,2.35
2022-09-17T03:59:34.115Z,2.42
2022-09-17T04:01:35.854Z,2.22
2022-09-17T04:03:37.601Z,2.20
2022-09-17T04:05:39.378Z,2.10
2022-09-17T04:07:41.066Z,2.50
2022-09-17T04:09:42.711Z,2.10
2022-09-17T04:11:44.430Z,2.25
2022-09-17T04:13:46.092Z,2.38
2022-09-17T04:15:47.908Z,2.50
2022-09-17T04:17:49.702Z,2.20
2022-09-17T04:19:51.402Z,2.17
2022-09-17T04:21:53.034Z,2.20
2022-09-17T04:23:54.697Z,2.30
2022-09-17T04:25:56.438Z,2.50
2022-09-17T04:27:58.077Z,2.30
2022-09-17T04:29:59.750Z,2.45
2022-09-17T04:32:01.605Z,2.50
2022-09-17T04:34:03.304Z,2.40
2022-09-17T04:36:05.052Z,2.33
2022-09-17T04:38:06.767Z,2.20
2022-09-17T04:40:09.104Z,2.17
2022-09-17T04:42:10.841Z,2.10
2022-09-17T04:44:12.512Z,2.10
2022-09-17T04:46:14.227Z,2.20
2022-09-17T04:48:16.002Z,2.00
2022-09-17T04:50:20.628Z,1.95
2022-09-17T04:52:22.259Z,2.28
2022-09-17T04:54:23.987Z,2.05
2022-09-17T04:56:25.663Z,2.30
2022-09-17T04:58:27.414Z,2.00
2022-09-17T05:00:29.264Z,2.30
2022-09-17T05:02:30.936Z,2.10
2022-09-17T05:04:32.651Z,2.28
2022-09-17T05:06:34.428Z,1.90
2022-09-17T05:08:36.160Z,2.17
2022-09-17T05:10:37.840Z,2.15
2022-09-17T05:12:39.558Z,1.95
2022-09-17T05:14:41.268Z,2.38
2022-09-17T05:16:42.938Z,2.10
2022-09-17T05:18:44.674Z,2.10
2022-09-17T05:20:46.323Z,2.08
2022-09-17T05:22:49.503Z,1.90
2022-09-17T05:24:51.166Z,2.08
2022-09-17T05:26:52.876Z,2.33
2022-09-17T05:28:54.511Z,2.13
2022-09-17T05:30:59.362Z,1.90
2022-09-17T05:33:04.768Z,2.13
2022-09-17T05:35:06.829Z,2.00
2022-09-17T05:37:11.699Z,2.28
2022-09-17T05:39:13.455Z,2.20
2022-09-17T05:41:15.202Z,1.90
2022-09-17T05:43:17.015Z,2.00
2022-09-17T05:45:18.829Z,2.13
2022-09-17T05:47:20.483Z,1.95
2022-09-17T05:49:22.338Z,1.90
2022-09-17T05:51:24.503Z,2.08
2022-09-17T05:53:26.211Z,2.15
2022-09-17T05:55:27.854Z,1.73
2022-09-17T05:57:29.808Z,1.85
2022-09-17T05:59:31.514Z,1.95
2022-09-17T06:01:33.210Z,2.10
2022-09-17T06:03:34.959Z,1.70
2022-09-17T06:05:36.652Z,2.15
2022-09-17T06:07:39.540Z,1.98
2022-09-17T06:09:43.794Z,1.90
2022-09-17T06:11:45.789Z,1.80
2022-09-17T06:13:47.525Z,2.10
2022-09-17T06:15:52.552Z,1.77
2022-09-17T06:17:54.348Z,1.98
2022-09-17T06:19:56.084Z,2.08
2022-09-17T06:21:59.507Z,2.00
2022-09-17T06:24:01.406Z,2.00
2022-09-17T06:26:03.973Z,1.80
2022-09-17T06:28:05.709Z,2.13
2022-09-17T06:30:07.540Z,2.10
2022-09-17T06:32:09.580Z,1.73
2022-09-17T06:34:11.547Z,2.00
2022-09-17T06:36:14.465Z,1.80
2022-09-17T06:38:17.335Z,1.80
2022-09-17T06:40:19.009Z,1.90
2022-09-17T06:42:20.783Z,1.70
2022-09-17T06:44:23.934Z,1.80
2022-09-17T06:46:27.359Z,2.13
2022-09-17T06:48:29.868Z,1.83
2022-09-17T06:50:32.095Z,2.20
2022-09-17T06:52:34.600Z,1.77
2022-09-17T06:54:36.359Z,2.15
2022-09-17T06:56:38.087Z,1.70
2022-09-17T06:58:39.852Z,1.88
2022-09-17T07:00:42.221Z,1.98
2022-09-17T07:02:43.982Z,2.00
2022-09-17T07:04:45.662Z,2.03
2022-09-17T07:06:47.548Z,1.98
2022-09-17T07:08:49.290Z,1.75
2022-09-17T07:10:51.025Z,2.03
2022-09-17T07:12:52.832Z,1.83
2022-09-17T07:14:54.505Z,1.92
2022-09-17T07:16:56.192Z,1.65
2022-09-17T07:18:57.894Z,1.77
2022-09-17T07:21:00.920Z,1.90
2022-09-17T07:23:02.742Z,2.10
2022-09-17T07:25:08.147Z,1.75
2022-09-17T07:27:09.799Z,1.80
2022-09-17T07:29:11.643Z,1.88
2022-09-17T07:31:16.430Z,1.90
2022-09-17T07:33:19.615Z,1.98
2022-09-17T07:35:21.371Z,1.58
2022-09-17T07:37:23.060Z,1.80
2022-09-17T07:39:26.001Z,1.65
2022-09-17T07:41:27.771Z,1.85
2022-09-17T07:43:32.083Z,1.90
2022-09-17T07:45:34.589Z,2.00
2022-09-17T07:47:40.847Z,1.80
2022-09-17T07:49:42.594Z,1.70
2022-09-17T07:51:44.237Z,1.75
2022-09-17T07:53:46.035Z,2.13
2022-09-17T07:55:55.101Z,2.15
2022-09-17T07:57:56.877Z,1.73
2022-09-17T07:59:58.580Z,1.67
2022-09-17T08:02:00.356Z,1.60
2022-09-17T08:04:02.531Z,1.70
2022-09-17T08:06:15.038Z,2.00
2022-09-17T08:08:21.139Z,1.90
2022-09-17T08:10:23.432Z,1.83
2022-09-17T08:12:25.151Z,1.88
2022-09-17T08:14:29.680Z,1.90
2022-09-17T08:16:31.755Z,1.80
2022-09-17T08:18:33.785Z,1.90
2022-09-17T08:20:35.437Z,2.10
2022-09-17T08:22:37.119Z,1.77
2022-09-17T08:24:38.787Z,1.92
2022-09-17T08:26:40.446Z,2.00
2022-09-17T08:28:48.290Z,1.70
2022-09-17T08:30:49.902Z,1.70
2022-09-17T08:32:51.617Z,2.72
2022-09-17T08:34:56.810Z,2.03
2022-09-17T08:36:59.746Z,1.92
2022-09-17T08:39:01.589Z,1.90
2022-09-17T08:41:15.449Z,1.80
2022-09-17T08:43:17.661Z,1.63
2022-09-17T08:45:19.318Z,1.77
2022-09-17T08:47:38.489Z,1.70
2022-09-17T08:49:41.382Z,1.90
2022-09-17T08:51:49.965Z,1.63
2022-09-17T08:54:14.944Z,1.85
2022-09-17T08:56:17.180Z,1.83
2022-09-17T08:58:24.595Z,1.83
2022-09-17T09:00:26.340Z,1.60
2022-09-17T09:02:35.590Z,1.65
2022-09-17T09:05:02.273Z,1.50
2022-09-17T09:07:21.407Z,1.90
2022-09-17T09:09:24.646Z,1.98
2022-09-17T09:11:29.502Z,1.70
2022-09-17T09:13:45.068Z,1.55
2022-09-17T09:15:57.825Z,1.70
2022-09-17T09:18:03.588Z,2.10
2022-09-17T09:20:05.650Z,1.70
2022-09-17T09:22:30.248Z,1.85
2022-09-17T09:24:41.710Z,1.85
2022-09-17T09:26:58.771Z,1.90
2022-09-17T09:29:13.397Z,1.63
2022-09-17T09:31:50.644Z,1.83
2022-09-17T09:33:52.352Z,1.58
2022-09-17T09:35:53.981Z,1.67
2022-09-17T09:38:20.965Z,1.50
2022-09-17T09:40:25.360Z,1.50
2022-09-17T09:44:34.899Z,1.58
2022-09-17T09:46:51.276Z,1.45
2022-09-17T09:48:58.804Z,1.40
2022-09-17T09:51:21.385Z,1.20
2022-09-17T09:54:03.674Z,1.63
2022-09-17T09:56:10.049Z,1.52
2022-09-17T09:58:22.568Z,1.60
2022-09-17T10:00:25.686Z,1.40
2022-09-17T10:02:27.582Z,1.52
2022-09-17T10:04:29.420Z,1.40
2022-09-17T10:06:31.110Z,1.30
2022-09-17T10:08:37.244Z,1.27
2022-09-17T10:10:55.440Z,1.20
2022-09-17T10:13:06.755Z,1.23
2022-09-17T10:15:26.502Z,1.30
2022-09-17T10:17:28.228Z,1.27
2022-09-17T10:19:30.025Z,1.50
2022-09-17T10:21:33.485Z,1.17
2022-09-17T10:23:36.841Z,1.27
2022-09-17T10:25:42.274Z,1.50
2022-09-17T10:27:44.678Z,1.20
2022-09-17T10:29:50.604Z,1.60
2022-09-17T10:31:53.867Z,1.50
2022-09-17T10:34:01.032Z,1.35
2022-09-17T10:36:37.926Z,1.33
2022-09-17T10:38:41.577Z,1.60
2022-09-17T10:40:43.303Z,1.40
2022-09-17T10:42:49.178Z,1.40
2022-09-17T10:44:58.208Z,1.30
2022-09-17T10:47:13.522Z,1.48
2022-09-17T10:49:33.401Z,1.40
2022-09-17T10:51:35.112Z,1.30
2022-09-17T10:54:06.185Z,1.23
2022-09-17T10:56:23.195Z,1.20
2022-09-17T10:58:39.190Z,1.50
2022-09-17T11:01:01.641Z,1.48
2022-09-17T11:03:17.626Z,1.35
2022-09-17T11:05:28.028Z,1.58
2022-09-17T11:07:48.111Z,1.50
2022-09-17T11:10:08.102Z,1.50
2022-09-17T11:12:19.386Z,1.45
2022-09-17T11:14:36.573Z,1.55
2022-09-17T11:16:44.266Z,1.38
2022-09-17T11:18:49.283Z,1.17
2022-09-17T11:20:58.423Z,1.45
2022-09-17T11:23:30.838Z,1.30
2022-09-17T11:25:47.567Z,1.25
2022-09-17T11:28:05.927Z,1.23
2022-09-17T11:30:20.837Z,1.33
2022-09-17T11:34:38.182Z,1.40
2022-09-17T11:36:52.685Z,1.52
2022-09-17T11:38:55.932Z,1.40
2022-09-17T11:41:12.329Z,1.52
2022-09-17T11:43:33.785Z,1.45
2022-09-17T11:45:38.183Z,1.30
2022-09-17T11:49:46.917Z,1.35
2022-09-17T11:51:55.660Z,1.65
2022-09-17T11:54:15.808Z,1.50
2022-09-17T11:56:31.133Z,1.52
2022-09-17T11:58:48.535Z,1.27
2022-09-17T12:00:53.093Z,1.60
2022-09-17T12:02:58.506Z,1.30
2022-09-17T12:05:07.785Z,1.75
2022-09-17T12:07:33.731Z,1.40
2022-09-17T12:09:35.520Z,1.35
2022-09-17T12:11:48.065Z,1.40
2022-09-17T12:13:54.907Z,1.40
2022-09-17T12:16:21.095Z,1.30
2022-09-17T12:18:44.256Z,1.42
2022-09-17T12:20:47.095Z,1.45
2022-09-17T12:22:48.804Z,1.25
2022-09-17T12:24:51.381Z,1.60
2022-09-17T12:27:02.227Z,1.38
2022-09-17T12:29:09.444Z,1.40
2022-09-17T12:31:34.146Z,1.40
2022-09-17T12:33:42.855Z,1.60
2022-09-17T12:36:19.931Z,1.60
2022-09-17T12:38:33.402Z,1.33
2022-09-17T12:41:19.482Z,1.38
2022-09-17T12:43:38.958Z,1.50
2022-09-17T12:45:50.460Z,1.23
2022-09-17T12:47:55.091Z,1.30
2022-09-17T12:50:24.418Z,1.25
2022-09-17T12:52:55.831Z,1.30
2022-09-17T12:55:28.510Z,1.60
2022-09-17T12:57:30.218Z,1.42
2022-09-17T12:59:33.173Z,1.15
2022-09-17T13:01:57.884Z,1.45
2022-09-17T13:04:18.464Z,1.30
2022-09-17T13:06:30.345Z,1.20
2022-09-17T13:08:53.846Z,1.50
2022-09-17T13:11:19.741Z,1.30
2022-09-17T13:13:58.793Z,1.50
2022-09-17T13:16:00.372Z,1.40
2022-09-17T13:18:25.223Z,1.30
2022-09-17T13:20:34.705Z,1.52
2022-09-17T13:22:47.869Z,1.60
2022-09-17T13:25:03.088Z,1.50
2022-09-17T13:27:05.335Z,1.52
2022-09-17T13:29:07.125Z,1.60
2022-09-17T13:31:09.237Z,1.63
2022-09-17T13:33:11.052Z,1.55
2022-09-17T13:35:12.688Z,1.52
2022-09-17T13:37:23.428Z,1.95
2022-09-17T13:39:38.754Z,1.38
2022-09-17T13:41:41.520Z,1.60
2022-09-17T13:43:45.117Z,1.73
2022-09-17T13:46:06.048Z,1.70
2022-09-17T13:48:11.291Z,1.60
2022-09-17T13:50:13.096Z,1.60
2022-09-17T13:52:14.781Z,1.70
2022-09-17T13:54:16.985Z,1.73
2022-09-17T13:56:37.814Z,1.50
2022-09-17T13:58:39.765Z,1.35
2022-09-17T14:01:06.629Z,1.52
2022-09-17T14:03:46.786Z,1.85
2022-09-17T14:05:48.596Z,1.60
2022-09-17T14:07:50.699Z,1.80
2022-09-17T14:10:15.517Z,1.73
2022-09-17T14:12:43.353Z,1.70
2022-09-17T14:14:50.788Z,1.77
2022-09-17T14:16:52.823Z,1.92
2022-09-17T14:19:05.072Z,1.98
2022-09-17T14:21:09.472Z,1.60
2022-09-17T14:25:16.486Z,1.60
2022-09-17T14:27:33.244Z,1.80
2022-09-17T14:29:55.400Z,1.83
2022-09-17T14:31:57.466Z,1.63
2022-09-17T14:33:59.340Z,1.63
2022-09-17T14:36:09.253Z,1.52
2022-09-17T14:38:33.959Z,1.38
2022-09-17T14:40:35.792Z,1.33
2022-09-17T14:42:37.547Z,1.50
2022-09-17T14:44:44.727Z,1.40
2022-09-17T14:46:55.115Z,1.38
2022-09-17T14:49:33.655Z,1.25
2022-09-17T14:51:39.665Z,1.20
2022-09-17T14:53:41.700Z,1.35
2022-09-17T14:55:43.481Z,1.42
2022-09-17T14:57:58.725Z,1.30
2022-09-17T15:00:00.833Z,1.23
2022-09-17T15:02:05.161Z,1.08
2022-09-17T15:06:23.323Z,1.20
2022-09-17T15:08:26.922Z,1.20
2022-09-17T15:10:28.681Z,1.60
2022-09-17T15:12:30.747Z,1.30
2022-09-17T15:14:34.663Z,1.30
2022-09-17T15:16:36.929Z,1.20
2022-09-17T15:18:41.422Z,1.20
2022-09-17T15:22:45.211Z,1.25
2022-09-17T15:24:55.778Z,1.52
2022-09-17T15:26:58.529Z,1.52
2022-09-17T15:29:00.184Z,1.25
2022-09-17T15:31:03.214Z,1.38
2022-09-17T15:33:05.114Z,1.45
2022-09-17T15:35:16.075Z,1.60
2022-09-17T15:37:18.826Z,1.70
2022-09-17T15:39:30.784Z,1.58
2022-09-17T15:41:34.067Z,1.60
2022-09-17T15:43:37.912Z,1.60
2022-09-17T15:45:39.927Z,1.60
2022-09-17T15:47:56.805Z,1.70
2022-09-17T15:50:11.204Z,1.70
2022-09-17T15:52:30.119Z,1.80
2022-09-17T15:54:32.231Z,1.55
2022-09-17T15:56:35.556Z,1.65
2022-09-17T15:58:41.059Z,1.92
2022-09-17T16:00:42.811Z,1.80
2022-09-17T16:02:44.530Z,1.83
2022-09-17T16:04:46.341Z,1.55
2022-09-17T16:07:01.025Z,1.67
2022-09-17T16:09:02.664Z,1.63
2022-09-17T16:11:04.401Z,1.80
2022-09-17T16:13:06.132Z,1.75
2022-09-17T16:15:08.550Z,1.75
2022-09-17T16:17:27.628Z,1.80
2022-09-17T16:19:29.296Z,1.90
2022-09-17T16:21:31.163Z,2.10
2022-09-17T16:23:32.870Z,1.90
2022-09-17T16:25:34.822Z,1.80
2022-09-17T16:27:48.053Z,1.70
2022-09-17T16:29:50.249Z,1.92
2022-09-17T16:31:52.127Z,1.58
2022-09-17T16:33:54.032Z,1.95
2022-09-17T16:35:59.334Z,1.80
2022-09-17T16:38:01.066Z,1.60
2022-09-17T16:40:03.233Z,2.00
2022-09-17T16:42:05.208Z,1.90
2022-09-17T16:44:07.086Z,1.67
2022-09-17T16:46:10.647Z,2.10
2022-09-17T16:48:12.508Z,2.00
2022-09-17T16:50:15.732Z,1.90
2022-09-17T16:52:17.510Z,2.10
2022-09-17T16:54:19.288Z,1.90
2022-09-17T16:56:21.140Z,2.13
2022-09-17T16:58:22.908Z,1.90
2022-09-17T17:00:25.053Z,2.22
2022-09-17T17:02:26.851Z,2.20
2022-09-17T17:04:28.826Z,1.95
2022-09-17T17:06:30.583Z,2.00
2022-09-17T17:08:32.973Z,2.10
2022-09-17T17:10:35.183Z,1.90
2022-09-17T17:12:37.391Z,2.20
2022-09-17T17:14:39.065Z,2.10
2022-09-17T17:16:40.884Z,2.00
2022-09-17T17:18:46.506Z,2.17
2022-09-17T17:20:48.385Z,2.55
2022-09-17T17:22:50.293Z,2.30
2022-09-17T17:24:52.304Z,2.30
2022-09-17T17:26:54.203Z,2.15
2022-09-17T17:28:56.334Z,2.10
2022-09-17T17:30:58.508Z,2.28
2022-09-17T17:33:00.393Z,2.20
2022-09-17T17:35:02.639Z,2.83
2022-09-17T17:37:04.409Z,2.22
2022-09-17T17:39:06.355Z,2.28
2022-09-17T17:41:11.598Z,2.42
2022-09-17T17:43:13.417Z,2.63
2022-09-17T17:45:15.577Z,2.30
2022-09-17T17:47:17.668Z,2.60
2022-09-17T17:49:19.635Z,2.72
2022-09-17T17:51:21.369Z,2.45
2022-09-17T17:53:23.575Z,2.38
2022-09-17T17:55:25.486Z,2.58
2022-09-17T17:57:27.207Z,2.70
2022-09-17T17:59:28.858Z,3.05
2022-09-17T18:01:31.015Z,2.60
2022-09-17T18:03:33.262Z,2.75
2022-09-17T18:05:35.031Z,2.67
2022-09-17T18:07:36.811Z,2.60
2022-09-17T18:09:38.912Z,2.63
2022-09-17T18:11:40.754Z,3.10
2022-09-17T18:13:42.577Z,2.72
2022-09-17T18:15:58.086Z,2.70
2022-09-17T18:17:59.952Z,3.08
2022-09-17T18:20:02.241Z,2.70
2022-09-17T18:22:04.358Z,2.78
2022-09-17T18:24:06.144Z,3.00
2022-09-17T18:26:11.293Z,2.78
2022-09-17T18:28:12.981Z,2.70
2022-09-17T18:30:14.923Z,2.80
2022-09-17T18:32:16.782Z,2.72
2022-09-17T18:34:18.417Z,3.17
2022-09-17T18:36:20.284Z,2.90
2022-09-17T18:38:22.101Z,2.78
2022-09-17T18:40:24.007Z,2.72
2022-09-17T18:42:28.803Z,2.83
2022-09-17T18:44:30.799Z,3.03
2022-09-17T18:46:33.141Z,2.90
2022-09-17T18:48:36.692Z,2.63
2022-09-17T18:50:38.539Z,2.85
2022-09-17T18:52:40.458Z,2.70
2022-09-17T18:54:42.557Z,3.05
2022-09-17T18:56:44.349Z,2.80
2022-09-17T18:58:46.623Z,2.90
2022-09-17T19:00:48.332Z,3.13
2022-09-17T19:02:50.517Z,2.90
2022-09-17T19:04:52.391Z,3.00
2022-09-17T19:06:54.076Z,3.03
2022-09-17T19:09:00.992Z,2.67
2022-09-17T19:11:03.260Z,2.70
2022-09-17T19:13:04.979Z,2.45
2022-09-17T19:15:07.505Z,2.60
2022-09-17T19:17:09.320Z,2.80
2022-09-17T19:19:11.064Z,2.63
2022-09-17T19:21:14.613Z,2.55
2022-09-17T19:23:16.270Z,2.60
2022-09-17T19:25:18.244Z,2.40
2022-09-17T19:27:19.962Z,2.40
2022-09-17T19:29:21.687Z,2.83
2022-09-17T19:31:24.126Z,2.15
2022-09-17T19:33:26.191Z,2.65
2022-09-17T19:35:28.008Z,2.50
2022-09-17T19:37:29.969Z,2.35
2022-09-17T19:39:31.873Z,2.60
2022-09-17T19:41:33.535Z,2.20
2022-09-17T19:43:35.249Z,2.85
2022-09-17T19:45:36.961Z,2.60
2022-09-17T19:47:38.636Z,2.60
2022-09-17T19:49:40.329Z,2.20
2022-09-17T19:51:41.979Z,2.40
2022-09-17T19:53:43.845Z,2.30
2022-09-17T19:55:45.747Z,2.22
2022-09-17T19:57:47.390Z,2.30
2022-09-17T19:59:49.079Z,2.13
2022-09-17T20:01:50.768Z,2.20
2022-09-17T20:03:52.586Z,2.13
2022-09-17T20:06:01.414Z,2.75
2022-09-17T20:08:04.008Z,2.30
2022-09-17T20:10:06.308Z,2.22
2022-09-17T20:12:08.004Z,2.40
2022-09-17T20:14:09.937Z,2.55
2022-09-17T20:16:19.325Z,2.40
2022-09-17T20:18:23.466Z,2.75
2022-09-17T20:22:27.111Z,2.38
2022-09-17T20:24:28.840Z,2.65
2022-09-17T20:26:30.514Z,2.42
2022-09-17T20:28:32.569Z,2.42
2022-09-17T20:30:34.197Z,2.00
2022-09-17T20:32:35.848Z,2.50
2022-09-17T20:34:37.443Z,2.42
2022-09-17T20:36:39.190Z,3.08
2022-09-17T20:41:03.789Z,2.53
2022-09-17T20:43:05.469Z,2.53
2022-09-17T20:45:07.395Z,2.78
2022-09-17T20:47:09.097Z,2.80
2022-09-17T20:49:10.828Z,2.65
2022-09-17T20:51:14.172Z,2.50
2022-09-17T20:53:15.822Z,2.85
2022-09-17T20:55:17.436Z,2.60
2022-09-17T20:57:19.101Z,2.70
2022-09-17T20:59:20.856Z,2.53
2022-09-17T21:01:24.318Z,3.08
2022-09-17T21:03:26.080Z,2.40
2022-09-17T21:05:27.797Z,2.90
2022-09-17T21:07:29.422Z,2.65
2022-09-17T21:09:31.021Z,2.70
2022-09-17T21:11:32.744Z,2.75
2022-09-17T21:13:36.108Z,2.60
2022-09-17T21:15:37.863Z,2.75
2022-09-17T21:17:39.564Z,2.95
2022-09-17T21:19:41.289Z,3.00
2022-09-17T21:21:42.992Z,2.75
2022-09-17T21:23:44.651Z,2.95
2022-09-17T21:25:46.280Z,2.80
2022-09-17T21:27:47.904Z,3.08
2022-09-17T21:29:49.580Z,3.03
2022-09-17T21:31:51.311Z,2.90
2022-09-17T21:33:54.418Z,2.85
2022-09-17T21:35:56.113Z,2.95
2022-09-17T21:37:57.834Z,2.85
2022-09-17T21:39:59.544Z,2.47
2022-09-17T21:42:01.204Z,2.60
2022-09-17T21:44:02.789Z,2.72
2022-09-17T21:46:06.106Z,3.00
2022-09-17T21:48:07.796Z,3.20
2022-09-17T21:50:09.604Z,2.60
2022-09-17T21:52:11.241Z,2.70
2022-09-17T21:54:14.066Z,2.83
2022-09-17T21:56:16.518Z,2.70
2022-09-17T21:58:18.194Z,2.60
2022-09-17T22:00:23.214Z,2.53
2022-09-17T22:02:25.311Z,2.78
2022-09-17T22:04:26.982Z,2.78
2022-09-17T22:06:30.107Z,3.13
2022-09-17T22:08:32.372Z,2.88
2022-09-17T22:10:34.059Z,2.97
2022-09-17T22:12:35.775Z,2.80
2022-09-17T22:14:37.447Z,3.15
2022-09-17T22:16:41.118Z,2.67
2022-09-17T22:18:46.113Z,2.63
2022-09-17T22:20:47.767Z,2.95
2022-09-17T22:22:49.448Z,2.50
2022-09-17T22:24:51.128Z,2.92
2022-09-17T22:26:57.394Z,2.60
2022-09-17T22:29:07.674Z,3.35
2022-09-17T22:31:10.874Z,2.88
2022-09-17T22:33:12.563Z,2.83
2022-09-17T22:35:14.276Z,2.75
2022-09-17T22:37:15.924Z,2.80
2022-09-17T22:39:18.075Z,2.60
2022-09-17T22:41:23.730Z,2.70
2022-09-17T22:43:25.376Z,2.88
2022-09-17T22:45:28.460Z,2.83
2022-09-17T22:47:30.151Z,2.50
2022-09-17T22:49:31.869Z,2.58
2022-09-17T22:51:33.534Z,2.65
2022-09-17T22:53:35.549Z,2.80
2022-09-17T22:55:37.165Z,2.60
2022-09-17T22:57:38.800Z,2.47
2022-09-17T22:59:40.534Z,2.70
2022-09-17T23:01:42.334Z,2.78
2022-09-17T23:03:44.385Z,2.40
2022-09-17T23:05:46.136Z,2.60
2022-09-17T23:07:47.755Z,2.97
2022-09-17T23:09:49.418Z,2.70
2022-09-17T23:11:51.047Z,2.80
2022-09-17T23:13:52.855Z,2.85
2022-09-17T23:15:54.921Z,2.85
2022-09-17T23:17:56.595Z,2.70
2022-09-17T23:19:58.259Z,2.60
2022-09-17T23:21:59.914Z,2.63
2022-09-17T23:24:01.965Z,2.70
2022-09-17T23:26:05.177Z,2.83
2022-09-17T23:28:06.779Z,2.95
2022-09-17T23:30:09.106Z,2.67
2022-09-17T23:32:10.761Z,2.97
2022-09-17T23:34:12.393Z,2.70
2022-09-17T23:36:16.010Z,2.65
2022-09-17T23:38:17.642Z,2.50
2022-09-17T23:40:19.397Z,3.15
2022-09-17T23:42:21.090Z,2.90
2022-09-17T23:44:22.698Z,2.78
2022-09-17T23:46:25.233Z,3.00
2022-09-17T23:48:26.971Z,2.80
2022-09-17T23:50:28.652Z,2.85
2022-09-17T23:52:30.301Z,2.70
2022-09-17T23:54:31.929Z,2.85
2022-09-17T23:56:33.646Z,2.70
2022-09-17T23:58:35.296Z,2.40
